Time;durP1;ratioP1;P1;durP2;ratioP2;P2;SDS_P1;SDS_P2;PMS_P1;PMS_P2;Temp;Humidity;BMP_temperature;BMP_pressure;BME280_temperature;BME280_humidity;BME280_pressure;Samples;Min_cycle;Max_cycle;Signal;HPM_P1;HPM_P2
2022/06/11 00:01:02;;;;;;;;;;;19.70;84.70;;;;;;5103705;28;19919;-73
2022/06/11 00:03:28;;;;;;;;;;;19.70;84.70;;;;;;5106583;28;19942;-74
2022/06/11 00:05:53;;;;;;;;;;;19.70;84.70;;;;;;5095534;28;19966;-74
2022/06/11 00:08:19;;;;;;;;;;;19.60;84.60;;;;;;5104155;28;19920;-74
2022/06/11 00:10:45;;;;;;;;;;;19.70;84.70;;;;;;5103819;28;19915;-74
2022/06/11 00:13:11;;;;;;;;;;;19.70;84.80;;;;;;5113814;27;19922;-74
2022/06/11 00:15:36;;;;;;;;;;;19.60;84.70;;;;;;5105899;27;19916;-74
2022/06/11 00:18:02;;;;;;;;;;;19.60;84.60;;;;;;5093069;28;19923;-74
2022/06/11 00:20:29;;;;;;;;;;;19.60;84.70;;;;;;5100943;27;19912;-74
2022/06/11 00:22:54;;;;;;;;;;;19.60;84.80;;;;;;5105670;28;19964;-74
2022/06/11 00:25:20;;;;;;;;;;;19.60;84.80;;;;;;5111771;27;19916;-74
2022/06/11 00:27:47;;;;;;;;;;;19.60;84.80;;;;;;5109348;27;19963;-74
2022/06/11 00:30:13;;;;;;;;;;;19.50;84.70;;;;;;5105875;28;19923;-75
2022/06/11 00:32:39;;;;;;;;;;;19.50;84.70;;;;;;5106506;27;19915;-74
2022/06/11 00:35:05;;;;;;;;;;;19.50;84.60;;;;;;5106152;28;19980;-74
2022/06/11 00:37:31;;;;;;;;;;;19.50;84.40;;;;;;5103315;28;19924;-74
2022/06/11 00:39:57;;;;;;;;;;;19.50;84.70;;;;;;5106042;28;19912;-74
2022/06/11 00:42:25;;;;;;;;;;;19.50;84.70;;;;;;5103036;28;20439;-74
2022/06/11 00:45:29;;;;;;;;;;;19.50;84.80;;;;;;5104499;28;19915;-74
2022/06/11 00:47:57;;;;;;;;;;;19.50;84.70;;;;;;5059273;28;19961;-74
2022/06/11 00:50:37;;;;;;;;;;;19.50;84.70;;;;;;5045359;28;20670;-74
2022/06/11 00:53:03;;;;;;;;;;;19.50;84.70;;;;;;5070360;28;19941;-74
2022/06/11 00:55:31;;;;;;;;;;;19.40;84.70;;;;;;5105781;28;19912;-74
2022/06/11 00:57:57;;;;;;;;;;;19.40;84.70;;;;;;5107163;27;19919;-74
2022/06/11 01:00:25;;;;;;;;;;;19.40;84.70;;;;;;5105649;28;20391;-74
2022/06/11 01:02:50;;;;;;;;;;;19.40;84.60;;;;;;5102577;28;20562;-74
2022/06/11 01:05:24;;;;;;;;;;;19.40;84.70;;;;;;5105454;28;19915;-74
2022/06/11 01:08:08;;;;;;;;;;;19.40;84.70;;;;;;5102773;28;19915;-73
2022/06/11 01:10:36;;;;;;;;;;;19.40;84.70;;;;;;5103828;28;20018;-74
2022/06/11 01:13:02;;;;;;;;;;;19.40;84.80;;;;;;5102879;28;20627;-74
2022/06/11 01:15:30;;;;;;;;;;;19.40;85.30;;;;;;5104880;28;19997;-74
2022/06/11 01:17:56;;;;;;;;;;;19.40;84.90;;;;;;5102173;28;19920;-74
2022/06/11 01:20:29;;;;;;;;;;;19.40;84.90;;;;;;5114065;28;20046;-74
2022/06/11 01:23:18;;;;;;;;;;;19.30;84.80;;;;;;5108454;27;20475;-75
2022/06/11 01:25:55;;;;;;;;;;;19.30;84.80;;;;;;5095282;28;19947;-74
2022/06/11 01:28:39;;;;;;;;;;;19.30;84.80;;;;;;5102253;28;20483;-74
2022/06/11 01:31:08;;;;;;;;;;;19.30;84.70;;;;;;5102824;28;20363;-74
2022/06/11 01:33:39;;;;;;;;;;;19.30;84.80;;;;;;5101887;27;19923;-73
2022/06/11 01:36:05;;;;;;;;;;;19.30;84.90;;;;;;5105019;28;19988;-74
2022/06/11 01:38:37;;;;;;;;;;;19.30;85.00;;;;;;5101263;28;19963;-74
2022/06/11 01:41:06;;;;;;;;;;;19.30;84.90;;;;;;5103697;28;19912;-74
2022/06/11 01:43:42;;;;;;;;;;;19.30;84.90;;;;;;5102704;28;20016;-73
2022/06/11 01:46:17;;;;;;;;;;;19.20;84.80;;;;;;5104999;28;20380;-73
2022/06/11 01:49:03;;;;;;;;;;;19.20;84.90;;;;;;5095615;28;19923;-74
2022/06/11 01:51:35;;;;;;;;;;;19.20;84.80;;;;;;5103343;28;19908;-74
2022/06/11 01:54:09;;;;;;;;;;;19.20;84.90;;;;;;5102948;28;20052;-74
2022/06/11 01:56:47;;;;;;;;;;;19.20;84.90;;;;;;5104671;28;20465;-74
2022/06/11 01:59:22;;;;;;;;;;;19.20;85.00;;;;;;5091224;28;24029;-74
2022/06/11 02:01:53;;;;;;;;;;;19.20;84.90;;;;;;5092763;28;19931;-74
2022/06/11 02:04:18;;;;;;;;;;;19.10;84.90;;;;;;5102904;28;19960;-74
2022/06/11 02:06:53;;;;;;;;;;;19.10;85.00;;;;;;5104343;28;20010;-73
2022/06/11 02:09:18;;;;;;;;;;;19.10;85.00;;;;;;5105358;28;19908;-75
2022/06/11 02:11:46;;;;;;;;;;;19.10;85.00;;;;;;5107225;28;20537;-74
2022/06/11 02:14:25;;;;;;;;;;;19.10;85.00;;;;;;5109240;27;19916;-74
2022/06/11 02:17:14;;;;;;;;;;;19.10;85.10;;;;;;5105650;28;20991;-74
2022/06/11 02:19:48;;;;;;;;;;;19.10;85.20;;;;;;5106861;28;19945;-74
2022/06/11 02:22:23;;;;;;;;;;;19.00;85.10;;;;;;5108122;28;19969;-74
2022/06/11 02:24:54;;;;;;;;;;;19.00;85.00;;;;;;5117642;27;19907;-74
2022/06/11 02:27:25;;;;;;;;;;;19.00;85.20;;;;;;5106774;28;20006;-73
2022/06/11 02:29:52;;;;;;;;;;;19.00;85.30;;;;;;5108264;27;19919;-74
2022/06/11 02:32:19;;;;;;;;;;;19.00;85.40;;;;;;5110795;27;19971;-74
2022/06/11 02:34:50;;;;;;;;;;;18.90;85.30;;;;;;5108015;28;20438;-75
2022/06/11 02:37:23;;;;;;;;;;;18.90;85.20;;;;;;5105322;27;19919;-74
2022/06/11 02:39:49;;;;;;;;;;;18.90;85.20;;;;;;5106465;28;20026;-75
2022/06/11 02:42:17;;;;;;;;;;;18.90;85.40;;;;;;5105209;28;19915;-74
2022/06/11 02:44:42;;;;;;;;;;;18.80;85.40;;;;;;5108276;28;20637;-74
2022/06/11 02:47:08;;;;;;;;;;;18.80;85.60;;;;;;5104246;28;19916;-74
2022/06/11 02:49:34;;;;;;;;;;;18.80;85.30;;;;;;5108130;28;19918;-74
2022/06/11 02:52:02;;;;;;;;;;;18.80;85.80;;;;;;5105136;28;20034;-75
2022/06/11 02:54:27;;;;;;;;;;;18.80;86.00;;;;;;5107526;28;19912;-74
2022/06/11 02:56:54;;;;;;;;;;;18.80;86.00;;;;;;5104358;28;19915;-74
2022/06/11 02:59:20;;;;;;;;;;;18.70;86.00;;;;;;5107941;28;19968;-74
2022/06/11 03:01:46;;;;;;;;;;;18.70;85.90;;;;;;5100368;27;19955;-74
2022/06/11 03:04:12;;;;;;;;;;;18.70;85.70;;;;;;5106156;28;20481;-74
2022/06/11 03:06:42;;;;;;;;;;;18.70;86.00;;;;;;5104724;28;19918;-75
2022/06/11 03:09:09;;;;;;;;;;;18.70;86.30;;;;;;5107224;28;19918;-75
2022/06/11 03:11:34;;;;;;;;;;;18.60;86.30;;;;;;5107611;28;19918;-73
2022/06/11 03:14:00;;;;;;;;;;;18.60;86.40;;;;;;5105804;27;19916;-73
2022/06/11 03:16:25;;;;;;;;;;;18.60;86.50;;;;;;5107502;27;19915;-73
2022/06/11 03:18:51;;;;;;;;;;;18.60;86.70;;;;;;5107764;27;19976;-74
2022/06/11 03:21:17;;;;;;;;;;;18.50;86.60;;;;;;5118607;27;19920;-74
2022/06/11 03:23:43;;;;;;;;;;;18.50;86.80;;;;;;5109892;27;20367;-74
2022/06/11 03:26:08;;;;;;;;;;;18.50;86.60;;;;;;5115214;27;19915;-74
2022/06/11 03:28:34;;;;;;;;;;;18.50;86.80;;;;;;5103960;28;19920;-74
2022/06/11 03:31:01;;;;;;;;;;;18.50;86.80;;;;;;5105642;28;19923;-74
2022/06/11 03:33:26;;;;;;;;;;;18.50;86.80;;;;;;5108575;27;19950;-74
2022/06/11 03:35:52;;;;;;;;;;;18.40;87.10;;;;;;5107441;27;19954;-74
2022/06/11 03:38:19;;;;;;;;;;;18.40;87.00;;;;;;5104574;27;19935;-73
2022/06/11 03:40:45;;;;;;;;;;;18.40;87.40;;;;;;5106968;28;19918;-74
2022/06/11 03:43:11;;;;;;;;;;;18.40;87.30;;;;;;5104184;28;20019;-75
2022/06/11 03:45:37;;;;;;;;;;;18.40;87.20;;;;;;5105814;28;20194;-74
2022/06/11 03:48:03;;;;;;;;;;;18.30;87.50;;;;;;5102971;28;19924;-74
2022/06/11 03:50:31;;;;;;;;;;;18.30;87.30;;;;;;5104489;27;19916;-75
2022/06/11 03:52:56;;;;;;;;;;;18.40;87.50;;;;;;5106187;28;19912;-73
2022/06/11 03:55:23;;;;;;;;;;;18.30;87.40;;;;;;5120615;27;19989;-74
2022/06/11 03:57:48;;;;;;;;;;;18.30;87.70;;;;;;5119255;27;20380;-74
2022/06/11 04:00:15;;;;;;;;;;;18.30;87.70;;;;;;5104471;28;19916;-74
2022/06/11 04:02:40;;;;;;;;;;;18.30;87.70;;;;;;5106240;28;20293;-74
2022/06/11 04:05:06;;;;;;;;;;;18.20;87.90;;;;;;5103987;28;19922;-75
2022/06/11 04:07:32;;;;;;;;;;;18.20;87.60;;;;;;5104290;28;20007;-74
2022/06/11 04:09:58;;;;;;;;;;;18.20;88.00;;;;;;5104358;28;19957;-74
2022/06/11 04:12:23;;;;;;;;;;;18.20;87.80;;;;;;5107831;27;19912;-74
2022/06/11 04:14:49;;;;;;;;;;;18.20;87.40;;;;;;5104989;27;19915;-74
2022/06/11 04:17:26;;;;;;;;;;;18.20;87.50;;;;;;5100002;28;20268;-74
2022/06/11 04:19:52;;;;;;;;;;;18.20;87.60;;;;;;5103579;27;20592;-74
2022/06/11 04:22:18;;;;;;;;;;;18.20;87.40;;;;;;5104351;28;19995;-74
2022/06/11 04:24:44;;;;;;;;;;;18.20;87.50;;;;;;5103260;28;20395;-75
2022/06/11 04:27:10;;;;;;;;;;;18.10;87.40;;;;;;5105273;28;19950;-74
2022/06/11 04:29:37;;;;;;;;;;;18.10;87.60;;;;;;5106162;28;20440;-74
2022/06/11 04:32:04;;;;;;;;;;;18.10;87.60;;;;;;5103207;28;19920;-74
2022/06/11 04:34:30;;;;;;;;;;;18.10;87.50;;;;;;5101617;28;19911;-74
2022/06/11 04:36:56;;;;;;;;;;;18.10;87.50;;;;;;5104087;28;20053;-74
2022/06/11 04:39:23;;;;;;;;;;;18.10;87.20;;;;;;5105579;28;19916;-74
2022/06/11 04:41:48;;;;;;;;;;;18.10;87.30;;;;;;5103456;28;20034;-74
2022/06/11 04:44:14;;;;;;;;;;;18.10;87.40;;;;;;5105122;28;19918;-74
2022/06/11 04:46:40;;;;;;;;;;;18.10;87.30;;;;;;5103315;28;19967;-74
2022/06/11 04:49:06;;;;;;;;;;;18.10;87.20;;;;;;5103935;28;20507;-74
2022/06/11 04:51:31;;;;;;;;;;;18.10;87.20;;;;;;5103533;28;19922;-74
2022/06/11 04:53:57;;;;;;;;;;;18.10;87.10;;;;;;5104862;28;19935;-74
2022/06/11 04:56:25;;;;;;;;;;;18.10;87.50;;;;;;5103267;28;19934;-74
2022/06/11 04:58:52;;;;;;;;;;;18.10;87.40;;;;;;5105622;28;20256;-73
2022/06/11 05:01:17;;;;;;;;;;;18.10;87.20;;;;;;5093874;28;19916;-73
2022/06/11 05:03:43;;;;;;;;;;;18.10;87.00;;;;;;5105048;28;19908;-74
2022/06/11 05:06:08;;;;;;;;;;;18.10;86.80;;;;;;5103329;28;20027;-74
2022/06/11 05:08:34;;;;;;;;;;;18.10;86.90;;;;;;5104503;28;20472;-74
2022/06/11 05:11:00;;;;;;;;;;;18.10;86.80;;;;;;5105414;28;20579;-74
2022/06/11 05:13:25;;;;;;;;;;;18.10;86.80;;;;;;5102649;28;19915;-74
2022/06/11 05:15:52;;;;;;;;;;;18.10;86.80;;;;;;5105397;28;19955;-74
2022/06/11 05:18:19;;;;;;;;;;;18.10;87.10;;;;;;5102449;28;19924;-74
2022/06/11 05:20:45;;;;;;;;;;;18.10;87.00;;;;;;5103455;28;20593;-74
2022/06/11 05:23:11;;;;;;;;;;;18.00;86.80;;;;;;5103065;28;20590;-74
2022/06/11 05:25:38;;;;;;;;;;;18.10;87.40;;;;;;5111704;27;19984;-74
2022/06/11 05:28:05;;;;;;;;;;;18.00;86.90;;;;;;5102084;28;19923;-74
2022/06/11 05:30:31;;;;;;;;;;;18.00;86.70;;;;;;5105666;28;20867;-74
2022/06/11 05:32:57;;;;;;;;;;;18.10;86.60;;;;;;5102348;28;19915;-74
2022/06/11 05:35:25;;;;;;;;;;;18.10;86.70;;;;;;5105276;28;19954;-74
2022/06/11 05:37:51;;;;;;;;;;;18.10;86.70;;;;;;5101799;28;19919;-74
2022/06/11 05:40:19;;;;;;;;;;;18.10;87.00;;;;;;5104868;28;19918;-74
2022/06/11 05:42:47;;;;;;;;;;;18.10;86.50;;;;;;5102201;28;20591;-74
2022/06/11 05:45:17;;;;;;;;;;;18.20;86.60;;;;;;5108039;28;19912;-74
2022/06/11 05:47:44;;;;;;;;;;;18.20;86.70;;;;;;5107435;28;20000;-74
2022/06/11 05:50:11;;;;;;;;;;;18.30;86.80;;;;;;5107906;28;19982;-74
2022/06/11 05:52:39;;;;;;;;;;;18.30;87.00;;;;;;5106985;28;19920;-74
2022/06/11 05:55:05;;;;;;;;;;;18.30;86.90;;;;;;5111634;27;19923;-74
2022/06/11 05:57:31;;;;;;;;;;;18.30;87.40;;;;;;5108526;28;20530;-74
2022/06/11 05:59:59;;;;;;;;;;;18.40;87.00;;;;;;5104693;28;19951;-74
2022/06/11 06:02:25;;;;;;;;;;;18.40;87.10;;;;;;5087573;28;19919;-74
2022/06/11 06:04:51;;;;;;;;;;;18.40;87.50;;;;;;5106480;28;19916;-75
2022/06/11 06:07:16;;;;;;;;;;;18.40;86.80;;;;;;5107586;28;20641;-74
2022/06/11 06:09:42;;;;;;;;;;;18.40;86.80;;;;;;5106067;28;20383;-74
2022/06/11 06:12:07;;;;;;;;;;;18.40;86.60;;;;;;5108613;28;19915;-74
2022/06/11 06:14:33;;;;;;;;;;;18.50;87.00;;;;;;5106575;27;20030;-73
2022/06/11 06:16:58;;;;;;;;;;;18.50;86.90;;;;;;5104489;28;20684;-75
2022/06/11 06:19:24;;;;;;;;;;;18.50;87.10;;;;;;5104321;27;19950;-74
2022/06/11 06:21:50;;;;;;;;;;;18.50;86.80;;;;;;5116829;27;19912;-74
2022/06/11 06:24:15;;;;;;;;;;;18.60;87.00;;;;;;5108258;27;20368;-74
2022/06/11 06:26:41;;;;;;;;;;;18.60;86.80;;;;;;5106259;28;19966;-74
2022/06/11 06:29:06;;;;;;;;;;;18.60;87.00;;;;;;5107955;27;20770;-74
2022/06/11 06:31:32;;;;;;;;;;;18.70;87.10;;;;;;5123753;27;19916;-74
2022/06/11 06:33:58;;;;;;;;;;;18.70;86.90;;;;;;5116099;27;19940;-74
2022/06/11 06:36:24;;;;;;;;;;;18.70;86.70;;;;;;5115376;27;20002;-74
2022/06/11 06:38:51;;;;;;;;;;;18.70;87.00;;;;;;5107876;28;20609;-74
2022/06/11 06:41:17;;;;;;;;;;;18.80;87.10;;;;;;5105898;28;20061;-75
2022/06/11 06:43:42;;;;;;;;;;;18.80;87.10;;;;;;5105677;28;20010;-75
2022/06/11 06:46:08;;;;;;;;;;;18.80;86.90;;;;;;5105169;28;19916;-75
2022/06/11 06:48:33;;;;;;;;;;;18.80;86.80;;;;;;5105884;28;19912;-75
2022/06/11 06:50:59;;;;;;;;;;;18.90;87.30;;;;;;5105221;28;19916;-75
2022/06/11 06:53:26;;;;;;;;;;;18.90;86.80;;;;;;5107263;27;19963;-74
2022/06/11 06:55:52;;;;;;;;;;;19.00;87.70;;;;;;5107081;27;19919;-74
2022/06/11 06:58:17;;;;;;;;;;;19.00;86.80;;;;;;5108898;27;19923;-75
2022/06/11 07:00:44;;;;;;;;;;;19.10;86.80;;;;;;5098460;27;19908;-74
2022/06/11 07:03:11;;;;;;;;;;;19.00;86.90;;;;;;5106091;28;19918;-74
2022/06/11 07:05:37;;;;;;;;;;;19.10;86.50;;;;;;5105890;28;19947;-74
2022/06/11 07:08:02;;;;;;;;;;;19.20;86.90;;;;;;5103779;27;19947;-74
2022/06/11 07:10:28;;;;;;;;;;;19.20;86.40;;;;;;5106101;28;19912;-74
2022/06/11 07:12:54;;;;;;;;;;;19.20;86.40;;;;;;5108243;27;20663;-75
2022/06/11 07:15:19;;;;;;;;;;;19.20;86.20;;;;;;5107493;28;19911;-74
2022/06/11 07:17:54;;;;;;;;;;;19.30;87.00;;;;;;5104883;27;19924;-75
2022/06/11 07:20:21;;;;;;;;;;;19.30;86.30;;;;;;5105413;28;19961;-75
2022/06/11 07:22:56;;;;;;;;;;;19.30;86.30;;;;;;5104633;27;19998;-74
2022/06/11 07:25:22;;;;;;;;;;;19.40;86.40;;;;;;5115938;27;19926;-74
2022/06/11 07:27:50;;;;;;;;;;;19.30;86.40;;;;;;5104597;28;19912;-75
2022/06/11 07:30:18;;;;;;;;;;;19.40;86.40;;;;;;5107442;28;19945;-75
2022/06/11 07:32:46;;;;;;;;;;;19.40;86.10;;;;;;5108779;27;20603;-74
2022/06/11 07:35:14;;;;;;;;;;;19.50;86.30;;;;;;5107113;28;19950;-74
2022/06/11 07:37:40;;;;;;;;;;;19.50;86.30;;;;;;5105601;27;20423;-74
2022/06/11 07:40:07;;;;;;;;;;;19.50;85.80;;;;;;5098821;28;19915;-75
2022/06/11 07:42:32;;;;;;;;;;;19.50;86.00;;;;;;5104046;27;19930;-74
2022/06/11 07:44:58;;;;;;;;;;;19.50;86.00;;;;;;5105700;27;20384;-75
2022/06/11 07:50:09;;;;;;;;;;;19.60;86.30;;;;;;5105829;28;19965;-75
2022/06/11 07:52:34;;;;;;;;;;;19.60;86.60;;;;;;5105383;28;20300;-74
2022/06/11 07:55:00;;;;;;;;;;;19.60;86.10;;;;;;5105480;28;19919;-74
2022/06/11 07:57:25;;;;;;;;;;;19.70;86.40;;;;;;5106220;28;19912;-74
2022/06/11 07:59:51;;;;;;;;;;;19.70;86.10;;;;;;5103213;28;19919;-75
2022/06/11 08:02:16;;;;;;;;;;;19.70;86.20;;;;;;5105438;28;19957;-75
2022/06/11 08:04:42;;;;;;;;;;;19.80;85.80;;;;;;5103652;28;20490;-75
2022/06/11 08:07:07;;;;;;;;;;;19.80;85.70;;;;;;5104535;28;19998;-74
2022/06/11 08:09:33;;;;;;;;;;;19.90;85.80;;;;;;5108898;27;20063;-75
2022/06/11 08:11:58;;;;;;;;;;;19.80;85.60;;;;;;5104485;28;20004;-75
2022/06/11 08:14:24;;;;;;;;;;;19.90;85.70;;;;;;5106236;27;19920;-75
2022/06/11 08:16:49;;;;;;;;;;;19.90;85.60;;;;;;5105579;28;20566;-75
2022/06/11 08:19:15;;;;;;;;;;;20.00;85.50;;;;;;5102732;27;19920;-75
2022/06/11 08:21:41;;;;;;;;;;;20.00;85.20;;;;;;5126471;27;20350;-75
2022/06/11 08:24:07;;;;;;;;;;;20.10;85.00;;;;;;5112320;27;20644;-74
2022/06/11 08:26:32;;;;;;;;;;;20.10;84.90;;;;;;5105597;28;19955;-76
2022/06/11 08:28:58;;;;;;;;;;;20.10;84.90;;;;;;5105996;27;19950;-75
2022/06/11 08:31:23;;;;;;;;;;;20.20;84.80;;;;;;5108596;27;19915;-74
2022/06/11 08:33:49;;;;;;;;;;;20.20;84.70;;;;;;5104602;28;19911;-75
2022/06/11 08:36:14;;;;;;;;;;;20.20;84.70;;;;;;5115139;27;20020;-74
2022/06/11 08:38:40;;;;;;;;;;;20.30;84.80;;;;;;5105008;28;20620;-75
2022/06/11 08:41:17;;;;;;;;;;;20.30;84.80;;;;;;5103665;28;20638;-75
2022/06/11 08:43:49;;;;;;;;;;;20.40;84.70;;;;;;5105639;28;19912;-75
2022/06/11 08:46:16;;;;;;;;;;;20.40;84.60;;;;;;5097493;28;19916;-74
2022/06/11 08:48:42;;;;;;;;;;;20.50;84.20;;;;;;5101293;28;19923;-74
2022/06/11 08:51:13;;;;;;;;;;;20.50;84.20;;;;;;5103458;28;19915;-75
2022/06/11 08:53:39;;;;;;;;;;;20.60;84.20;;;;;;5105381;28;19926;-75
2022/06/11 08:56:08;;;;;;;;;;;20.60;83.90;;;;;;5103376;28;20562;-75
2022/06/11 08:58:44;;;;;;;;;;;20.60;83.90;;;;;;5105531;28;19973;-74
2022/06/11 09:01:09;;;;;;;;;;;20.70;83.80;;;;;;5105931;28;19915;-75
2022/06/11 09:03:47;;;;;;;;;;;20.70;83.70;;;;;;5105029;28;20394;-74
2022/06/11 09:06:23;;;;;;;;;;;20.80;83.50;;;;;;5102857;28;19920;-74
2022/06/11 09:09:02;;;;;;;;;;;20.80;83.30;;;;;;5103804;28;19990;-74
2022/06/11 09:11:37;;;;;;;;;;;20.90;83.40;;;;;;5103454;28;19935;-74
2022/06/11 09:14:21;;;;;;;;;;;20.90;83.20;;;;;;5112289;28;19947;-75
2022/06/11 09:17:05;;;;;;;;;;;21.00;83.20;;;;;;5102686;28;20699;-74
2022/06/11 09:19:51;;;;;;;;;;;21.00;82.70;;;;;;5107349;27;20348;-74
2022/06/11 09:22:36;;;;;;;;;;;21.00;82.90;;;;;;5107438;28;19915;-74
2022/06/11 09:25:11;;;;;;;;;;;21.00;83.40;;;;;;5108688;28;19915;-75
2022/06/11 09:27:49;;;;;;;;;;;21.10;83.00;;;;;;5107353;28;19915;-74
2022/06/11 09:30:14;;;;;;;;;;;21.10;83.10;;;;;;5128620;27;19927;-75
2022/06/11 09:32:55;;;;;;;;;;;21.20;82.80;;;;;;5097777;28;19907;-75
2022/06/11 09:35:20;;;;;;;;;;;21.30;82.60;;;;;;5107192;28;20639;-74
2022/06/11 09:37:52;;;;;;;;;;;21.40;82.50;;;;;;5107743;27;19919;-75
2022/06/11 09:40:23;;;;;;;;;;;21.40;82.20;;;;;;5111187;27;19915;-75
2022/06/11 09:42:49;;;;;;;;;;;21.50;82.30;;;;;;5106838;28;19923;-75
2022/06/11 09:45:17;;;;;;;;;;;21.50;82.20;;;;;;5113455;27;19911;-74
2022/06/11 09:47:53;;;;;;;;;;;21.60;81.90;;;;;;5116904;27;19957;-75
2022/06/11 09:50:24;;;;;;;;;;;21.60;82.10;;;;;;5108810;28;19912;-75
2022/06/11 09:52:53;;;;;;;;;;;21.70;81.60;;;;;;5106601;28;19968;-75
2022/06/11 09:55:37;;;;;;;;;;;21.70;81.70;;;;;;5106523;28;19972;-75
2022/06/11 09:58:21;;;;;;;;;;;21.80;81.70;;;;;;5095477;28;20014;-74
2022/06/11 10:00:48;;;;;;;;;;;21.80;81.70;;;;;;5108796;28;19919;-75
2022/06/11 10:05:51;;;;;;;;;;;21.80;81.60;;;;;;5108252;28;19931;-75
2022/06/11 10:08:20;;;;;;;;;;;21.90;81.60;;;;;;5105166;28;19916;-75
2022/06/11 10:10:46;;;;;;;;;;;22.00;81.50;;;;;;5107611;28;19919;-75
2022/06/11 10:13:17;;;;;;;;;;;22.00;81.40;;;;;;5103694;28;19955;-76
2022/06/11 10:15:46;;;;;;;;;;;22.00;81.40;;;;;;5107575;27;19907;-75
2022/06/11 10:18:21;;;;;;;;;;;22.00;81.40;;;;;;5092537;27;20374;-75
2022/06/11 10:20:49;;;;;;;;;;;22.00;81.50;;;;;;5109837;27;20221;-75
2022/06/11 10:23:36;;;;;;;;;;;21.90;81.60;;;;;;5108894;27;20451;-75
2022/06/11 10:26:22;;;;;;;;;;;22.00;81.60;;;;;;5102819;28;19975;-75
2022/06/11 10:28:51;;;;;;;;;;;22.10;81.30;;;;;;5097051;28;19980;-75
2022/06/11 10:31:21;;;;;;;;;;;22.20;81.10;;;;;;5107730;28;20436;-75
2022/06/11 10:33:49;;;;;;;;;;;22.20;81.10;;;;;;5105195;28;20275;-75
2022/06/11 10:36:31;;;;;;;;;;;22.20;81.50;;;;;;5106787;27;20052;-75
2022/06/11 10:39:03;;;;;;;;;;;22.20;81.40;;;;;;5103594;28;20044;-75
2022/06/11 10:41:37;;;;;;;;;;;22.20;81.30;;;;;;5102262;28;19919;-75
2022/06/11 10:44:11;;;;;;;;;;;22.20;81.10;;;;;;5106847;28;20421;-75
2022/06/11 10:46:37;;;;;;;;;;;22.20;81.10;;;;;;5106733;28;20007;-76
2022/06/11 10:49:03;;;;;;;;;;;22.40;80.10;;;;;;5105653;28;19911;-76
2022/06/11 10:51:32;;;;;;;;;;;22.50;80.20;;;;;;5104779;28;20649;-75
2022/06/11 10:54:09;;;;;;;;;;;22.50;80.20;;;;;;5106497;28;19935;-75
2022/06/11 10:56:44;;;;;;;;;;;22.50;80.50;;;;;;5099464;28;20043;-75
2022/06/11 10:59:22;;;;;;;;;;;22.40;80.50;;;;;;5104169;28;19919;-75
2022/06/11 11:01:52;;;;;;;;;;;22.60;80.10;;;;;;5104416;28;19916;-75
2022/06/11 11:04:30;;;;;;;;;;;22.80;79.80;;;;;;5106286;28;19960;-76
2022/06/11 11:07:06;;;;;;;;;;;22.80;79.50;;;;;;5103169;28;20366;-75
2022/06/11 11:09:32;;;;;;;;;;;22.80;79.60;;;;;;5105950;28;20384;-75
2022/06/11 11:12:00;;;;;;;;;;;22.90;79.40;;;;;;5103923;28;19985;-75
2022/06/11 11:14:28;;;;;;;;;;;22.90;79.30;;;;;;5107872;27;19912;-75
2022/06/11 11:16:57;;;;;;;;;;;22.90;79.50;;;;;;5104147;28;19964;-75
2022/06/11 11:19:24;;;;;;;;;;;23.00;79.20;;;;;;5107264;27;19912;-75
2022/06/11 11:21:54;;;;;;;;;;;23.00;79.10;;;;;;5113408;27;19967;-75
2022/06/11 11:24:22;;;;;;;;;;;23.10;79.30;;;;;;5104542;28;20002;-75
2022/06/11 11:26:50;;;;;;;;;;;23.20;79.10;;;;;;5108448;27;19960;-76
2022/06/11 11:29:18;;;;;;;;;;;23.30;78.90;;;;;;5105964;28;19927;-75
2022/06/11 11:31:57;;;;;;;;;;;23.30;78.40;;;;;;5109275;27;20288;-75
2022/06/11 11:34:30;;;;;;;;;;;23.40;78.60;;;;;;5115502;27;19923;-74
2022/06/11 11:36:58;;;;;;;;;;;23.40;78.90;;;;;;5104623;27;19984;-75
2022/06/11 11:39:28;;;;;;;;;;;23.40;78.70;;;;;;5104766;28;19922;-72
2022/06/11 11:41:54;;;;;;;;;;;23.50;78.80;;;;;;5103557;27;20002;-73
2022/06/11 11:44:21;;;;;;;;;;;23.70;77.90;;;;;;5104894;27;20003;-72
2022/06/11 11:46:50;;;;;;;;;;;23.70;77.60;;;;;;5102851;28;19912;-72
2022/06/11 11:49:19;;;;;;;;;;;23.70;77.80;;;;;;5105878;28;19912;-72
2022/06/11 11:51:44;;;;;;;;;;;23.80;77.80;;;;;;5103368;28;19912;-72
2022/06/11 11:54:17;;;;;;;;;;;23.90;77.30;;;;;;5104395;28;19968;-73
2022/06/11 11:57:03;;;;;;;;;;;24.10;77.70;;;;;;5104521;28;19961;-73
2022/06/11 11:59:28;;;;;;;;;;;24.20;77.40;;;;;;5097911;28;19920;-73
2022/06/11 12:02:14;;;;;;;;;;;24.30;76.80;;;;;;5105930;28;19912;-73
2022/06/11 12:04:50;;;;;;;;;;;24.30;77.10;;;;;;5095780;28;20576;-72
2022/06/11 12:07:18;;;;;;;;;;;24.10;76.90;;;;;;5092904;28;19999;-73
2022/06/11 12:09:47;;;;;;;;;;;24.10;77.40;;;;;;5104146;28;19919;-72
2022/06/11 12:12:27;;;;;;;;;;;24.10;77.80;;;;;;5104286;28;19955;-72
2022/06/11 12:14:56;;;;;;;;;;;24.10;77.60;;;;;;5102309;28;19919;-73
2022/06/11 12:17:28;;;;;;;;;;;24.30;77.40;;;;;;5098030;28;19927;-73
2022/06/11 12:20:01;;;;;;;;;;;24.40;77.70;;;;;;5105930;27;19953;-73
2022/06/11 12:22:31;;;;;;;;;;;24.50;77.70;;;;;;5126216;27;19907;-73
2022/06/11 12:24:58;;;;;;;;;;;24.60;76.70;;;;;;5108746;27;20026;-72
2022/06/11 12:27:31;;;;;;;;;;;24.70;76.90;;;;;;5105403;28;19911;-72
2022/06/11 12:30:01;;;;;;;;;;;24.80;76.60;;;;;;5103142;28;19926;-73
2022/06/11 12:32:27;;;;;;;;;;;24.80;76.20;;;;;;5105956;28;19911;-73
2022/06/11 12:34:53;;;;;;;;;;;24.80;76.80;;;;;;5106488;27;19915;-73
2022/06/11 12:37:23;;;;;;;;;;;24.80;76.20;;;;;;5106440;27;19957;-73
2022/06/11 12:39:48;;;;;;;;;;;24.90;76.20;;;;;;5103208;28;20531;-73
2022/06/11 12:42:27;;;;;;;;;;;25.00;76.40;;;;;;5105985;28;19950;-73
2022/06/11 12:44:56;;;;;;;;;;;25.10;76.10;;;;;;5102718;27;19922;-72
2022/06/11 12:47:40;;;;;;;;;;;25.10;75.90;;;;;;5097146;28;19951;-73
2022/06/11 12:50:21;;;;;;;;;;;25.20;76.40;;;;;;5092758;28;19916;-73
2022/06/11 12:52:47;;;;;;;;;;;25.30;76.10;;;;;;5090737;28;19916;-73
2022/06/11 12:55:22;;;;;;;;;;;25.20;75.90;;;;;;5102439;28;19941;-73
2022/06/11 12:57:53;;;;;;;;;;;25.30;75.30;;;;;;5096187;28;19916;-73
2022/06/11 13:00:37;;;;;;;;;;;25.30;75.20;;;;;;5102884;28;20007;-72
2022/06/11 13:03:11;;;;;;;;;;;25.30;75.40;;;;;;5105510;28;19912;-73
2022/06/11 13:05:39;;;;;;;;;;;25.40;75.00;;;;;;5102274;28;20019;-73
2022/06/11 13:08:10;;;;;;;;;;;25.30;75.50;;;;;;5105166;28;19958;-73
2022/06/11 13:10:39;;;;;;;;;;;25.30;75.40;;;;;;5102814;28;20612;-73
2022/06/11 13:13:07;;;;;;;;;;;25.40;75.00;;;;;;5109562;28;19937;-72
2022/06/11 13:15:41;;;;;;;;;;;25.50;74.60;;;;;;5102516;28;19919;-72
2022/06/11 13:18:15;;;;;;;;;;;25.60;74.50;;;;;;5099307;28;20014;-72
2022/06/11 13:20:41;;;;;;;;;;;25.70;75.00;;;;;;5109644;28;19916;-75
2022/06/11 13:23:13;;;;;;;;;;;25.80;73.70;;;;;;5106437;28;19939;-73
2022/06/11 13:25:41;;;;;;;;;;;25.90;75.00;;;;;;5122249;27;21678;-71
2022/06/11 13:28:16;;;;;;;;;;;25.90;74.90;;;;;;5103995;28;19916;-70
2022/06/11 13:30:44;;;;;;;;;;;26.00;73.20;;;;;;5102497;28;19927;-71
2022/06/11 13:33:10;;;;;;;;;;;26.00;74.10;;;;;;5104456;28;19916;-69
2022/06/11 13:35:38;;;;;;;;;;;25.90;74.80;;;;;;5103297;28;19912;-72
2022/06/11 13:38:06;;;;;;;;;;;26.00;75.70;;;;;;5102864;28;19916;-71
2022/06/11 13:40:56;;;;;;;;;;;26.10;75.10;;;;;;5105371;28;19911;-74
2022/06/11 13:43:43;;;;;;;;;;;26.10;75.40;;;;;;5089099;28;19929;-73
2022/06/11 13:46:23;;;;;;;;;;;26.30;74.80;;;;;;5099662;28;19911;-73
2022/06/11 13:49:07;;;;;;;;;;;26.20;73.40;;;;;;5094803;28;19911;-73
2022/06/11 13:51:34;;;;;;;;;;;26.20;74.80;;;;;;5101932;28;19958;-72
2022/06/11 13:56:59;;;;;;;;;;;26.30;74.70;;;;;;5091858;28;19927;-73
2022/06/11 13:59:54;;;;;;;;;;;26.40;74.20;;;;;;5104322;28;20073;-72
2022/06/11 14:02:28;;;;;;;;;;;26.50;74.50;;;;;;5092771;28;20250;-72
2022/06/11 14:04:58;;;;;;;;;;;26.50;73.50;;;;;;5104784;28;19938;-73
2022/06/11 14:07:25;;;;;;;;;;;26.60;74.10;;;;;;5105205;27;19923;-73
2022/06/11 14:10:22;;;;;;;;;;;26.60;73.90;;;;;;5107593;28;19912;-74
2022/06/11 14:12:52;;;;;;;;;;;26.60;72.20;;;;;;5105191;27;19916;-73
2022/06/11 14:15:29;;;;;;;;;;;26.50;73.70;;;;;;5107016;28;19916;-73
2022/06/11 14:18:00;;;;;;;;;;;26.50;73.20;;;;;;5098517;28;19920;-73
2022/06/11 14:20:33;;;;;;;;;;;26.50;72.70;;;;;;5105529;28;19962;-73
2022/06/11 14:23:00;;;;;;;;;;;26.60;72.10;;;;;;5105589;28;19922;-73
2022/06/11 14:25:53;;;;;;;;;;;26.70;71.90;;;;;;5108405;27;19984;-73
2022/06/11 14:28:19;;;;;;;;;;;26.80;71.30;;;;;;5078377;28;19982;-73
2022/06/11 14:30:53;;;;;;;;;;;26.90;70.90;;;;;;5106135;28;20407;-73
2022/06/11 14:33:26;;;;;;;;;;;26.90;70.70;;;;;;5105093;28;19922;-73
2022/06/11 14:36:17;;;;;;;;;;;26.90;70.90;;;;;;5107252;27;20416;-73
2022/06/11 14:38:57;;;;;;;;;;;26.80;70.90;;;;;;5094156;28;19916;-74